createdAt,value
2022-08-30T00:00:04.069Z,7.30
2022-08-30T00:01:56.410Z,6.87
2022-08-30T00:03:41.267Z,6.80
2022-08-30T00:05:17.392Z,6.93
2022-08-30T00:06:49.535Z,6.53
2022-08-30T00:08:22.172Z,6.90
2022-08-30T00:09:54.721Z,6.70
2022-08-30T00:11:29.161Z,7.43
2022-08-30T00:14:54.335Z,6.73
2022-08-30T00:16:26.998Z,8.50
2022-08-30T00:17:59.672Z,7.77
2022-08-30T00:19:31.972Z,7.60
2022-08-30T00:21:06.745Z,8.50
2022-08-30T00:22:39.254Z,8.37
2022-08-30T00:24:11.508Z,8.43
2022-08-30T00:25:45.033Z,7.77
2022-08-30T00:27:17.337Z,7.97
2022-08-30T00:28:49.730Z,8.30
2022-08-30T00:30:22.747Z,7.80
2022-08-30T00:31:54.993Z,7.70
2022-08-30T00:33:27.673Z,7.40
2022-08-30T00:35:00.311Z,8.13
2022-08-30T00:36:32.468Z,7.87
2022-08-30T00:38:04.839Z,7.90
2022-08-30T00:39:36.996Z,8.27
2022-08-30T00:41:09.589Z,8.43
2022-08-30T00:42:44.647Z,8.03
2022-08-30T00:44:22.752Z,8.27
2022-08-30T00:45:56.203Z,9.27
2022-08-30T00:47:28.696Z,8.40
2022-08-30T00:49:07.003Z,8.30
2022-08-30T00:50:57.864Z,7.60
2022-08-30T00:52:30.339Z,7.87
2022-08-30T00:54:04.084Z,8.20
2022-08-30T00:55:37.243Z,7.67
2022-08-30T00:57:14.419Z,7.20
2022-08-30T00:58:52.329Z,8.20
2022-08-30T01:00:25.166Z,8.37
2022-08-30T01:01:57.930Z,8.33
2022-08-30T01:03:31.546Z,7.23
2022-08-30T01:05:10.759Z,7.67
2022-08-30T01:06:48.359Z,7.77
2022-08-30T01:08:22.387Z,8.03
2022-08-30T01:09:55.494Z,7.33
2022-08-30T01:11:29.172Z,8.30
2022-08-30T01:13:01.639Z,7.63
2022-08-30T01:14:34.671Z,8.03
2022-08-30T01:16:08.154Z,7.60
2022-08-30T01:17:47.800Z,7.60
2022-08-30T01:19:51.434Z,8.30
2022-08-30T01:21:50.827Z,8.57
2022-08-30T01:23:27.170Z,8.27
2022-08-30T01:25:02.564Z,8.87
2022-08-30T01:26:36.743Z,8.17
2022-08-30T01:28:18.440Z,8.03
2022-08-30T01:29:51.413Z,9.10
2022-08-30T01:31:23.948Z,8.97
2022-08-30T01:33:03.664Z,9.87
2022-08-30T01:34:35.839Z,9.33
2022-08-30T01:36:13.166Z,8.50
2022-08-30T01:37:47.120Z,9.90
2022-08-30T01:39:19.416Z,9.57
2022-08-30T01:40:57.610Z,10.27
2022-08-30T01:42:30.227Z,9.67
2022-08-30T01:44:08.746Z,9.10
2022-08-30T01:45:41.781Z,9.07
2022-08-30T01:47:15.228Z,9.07
2022-08-30T01:48:50.269Z,9.93
2022-08-30T01:50:26.439Z,9.33
2022-08-30T01:52:00.864Z,9.40
2022-08-30T01:53:33.704Z,9.50
2022-08-30T01:55:07.271Z,9.47
2022-08-30T01:56:40.372Z,9.27
2022-08-30T01:58:13.134Z,10.17
2022-08-30T01:59:47.767Z,9.43
2022-08-30T02:01:25.871Z,9.43
2022-08-30T02:02:58.835Z,10.30
2022-08-30T02:04:31.496Z,9.93
2022-08-30T02:06:08.979Z,10.27
2022-08-30T02:07:41.709Z,10.73
2022-08-30T02:09:13.950Z,10.90
2022-08-30T02:10:46.201Z,11.50
2022-08-30T02:12:18.943Z,11.23
2022-08-30T02:13:51.532Z,10.87
2022-08-30T02:15:23.662Z,11.17
2022-08-30T02:16:56.364Z,11.33
2022-08-30T02:18:28.704Z,11.00
2022-08-30T02:20:01.332Z,10.30
2022-08-30T02:21:34.415Z,10.73
2022-08-30T02:23:06.762Z,11.50
2022-08-30T02:24:39.279Z,10.83
2022-08-30T02:26:13.315Z,10.90
2022-08-30T02:27:45.527Z,10.50
2022-08-30T02:29:17.675Z,11.60
2022-08-30T02:30:50.366Z,10.53
2022-08-30T02:32:22.827Z,11.80
2022-08-30T02:33:55.349Z,11.63
2022-08-30T02:35:27.784Z,11.43
2022-08-30T02:37:00.989Z,11.73
2022-08-30T02:38:35.480Z,11.30
2022-08-30T02:40:08.531Z,10.97
2022-08-30T02:41:41.999Z,11.00
2022-08-30T02:43:14.788Z,11.13
2022-08-30T02:44:47.198Z,11.63
2022-08-30T02:46:19.547Z,11.17
2022-08-30T02:47:51.981Z,11.13
2022-08-30T02:49:33.230Z,9.53
2022-08-30T02:51:11.995Z,11.10
2022-08-30T02:52:45.305Z,10.20
2022-08-30T02:54:20.843Z,11.93
2022-08-30T02:55:52.991Z,11.17
2022-08-30T02:57:25.662Z,10.47
2022-08-30T02:58:58.046Z,10.30
2022-08-30T03:00:30.967Z,11.40
2022-08-30T03:02:03.298Z,11.93
2022-08-30T03:03:36.448Z,12.37
2022-08-30T03:05:13.027Z,12.53
2022-08-30T03:06:45.219Z,14.07
2022-08-30T03:08:17.587Z,14.07
2022-08-30T03:09:50.020Z,13.60
2022-08-30T03:11:22.908Z,14.00
2022-08-30T03:12:56.750Z,13.60
2022-08-30T03:14:29.215Z,14.20
2022-08-30T03:16:01.795Z,12.10
2022-08-30T03:17:34.751Z,12.07
2022-08-30T03:19:06.939Z,14.20
2022-08-30T03:20:41.425Z,13.57
2022-08-30T03:22:16.920Z,16.33
2022-08-30T03:23:49.256Z,16.50
2022-08-30T03:25:22.295Z,16.80
2022-08-30T03:26:54.828Z,16.47
2022-08-30T03:28:27.327Z,12.37
2022-08-30T03:29:59.526Z,13.17
2022-08-30T03:31:31.777Z,12.83
2022-08-30T03:33:13.014Z,12.60
2022-08-30T03:34:45.718Z,13.70
2022-08-30T03:36:17.906Z,12.67
2022-08-30T03:37:50.299Z,13.00
2022-08-30T03:39:28.799Z,13.50
2022-08-30T03:41:01.127Z,13.27
2022-08-30T03:42:33.412Z,14.27
2022-08-30T03:44:05.773Z,16.17
2022-08-30T03:45:39.449Z,14.20
2022-08-30T03:47:12.372Z,14.77
2022-08-30T03:48:44.604Z,15.40
2022-08-30T03:50:16.872Z,13.80
2022-08-30T03:51:49.324Z,13.03
2022-08-30T03:53:22.252Z,13.90
2022-08-30T03:54:54.947Z,14.10
2022-08-30T03:56:27.432Z,14.33
2022-08-30T03:57:59.580Z,15.10
2022-08-30T03:59:32.494Z,15.03
2022-08-30T04:01:04.742Z,14.87
2022-08-30T04:02:37.778Z,14.67
2022-08-30T04:04:10.040Z,17.03
2022-08-30T04:05:42.447Z,16.90
2022-08-30T04:07:14.687Z,18.20
2022-08-30T04:08:46.943Z,17.03
2022-08-30T04:10:21.286Z,18.03
2022-08-30T04:11:54.075Z,17.30
2022-08-30T04:13:26.257Z,16.70
2022-08-30T04:14:58.935Z,20.60
2022-08-30T04:16:31.695Z,16.33
2022-08-30T04:18:04.216Z,16.60
2022-08-30T04:19:36.458Z,16.90
2022-08-30T04:21:11.345Z,16.17
2022-08-30T04:22:46.160Z,18.13
2022-08-30T04:24:18.608Z,14.77
2022-08-30T04:25:50.823Z,17.03
2022-08-30T04:27:23.007Z,16.53
2022-08-30T04:28:55.807Z,17.23
2022-08-30T04:30:28.660Z,15.17
2022-08-30T04:32:01.014Z,17.23
2022-08-30T04:33:35.553Z,15.77
2022-08-30T04:35:11.638Z,15.50
2022-08-30T04:36:48.111Z,16.77
2022-08-30T04:38:22.666Z,16.43
2022-08-30T04:40:00.552Z,16.90
2022-08-30T04:41:33.328Z,16.17
2022-08-30T04:43:05.683Z,17.47
2022-08-30T04:44:38.316Z,17.83
2022-08-30T04:46:11.031Z,18.00
2022-08-30T04:47:44.476Z,15.27
2022-08-30T04:49:16.909Z,17.83
2022-08-30T04:50:49.503Z,17.80
2022-08-30T04:52:21.659Z,17.23
2022-08-30T04:53:53.825Z,17.40
2022-08-30T04:55:26.625Z,17.33
2022-08-30T04:56:58.833Z,17.00
2022-08-30T04:58:30.988Z,16.87
2022-08-30T05:00:11.544Z,17.90
2022-08-30T05:01:45.520Z,17.90
2022-08-30T05:03:18.657Z,16.70
2022-08-30T05:05:09.287Z,16.40
2022-08-30T05:06:42.490Z,17.30
2022-08-30T05:08:21.054Z,16.67
2022-08-30T05:09:56.693Z,16.33
2022-08-30T05:11:29.779Z,17.87
2022-08-30T05:13:01.944Z,18.37
2022-08-30T05:14:34.827Z,16.63
2022-08-30T05:16:08.528Z,16.63
2022-08-30T05:17:42.118Z,17.07
2022-08-30T05:19:14.334Z,16.17
2022-08-30T05:20:46.888Z,15.70
2022-08-30T05:22:19.072Z,15.90
2022-08-30T05:23:54.923Z,15.30
2022-08-30T05:25:33.395Z,16.30
2022-08-30T05:27:06.389Z,15.30
2022-08-30T05:28:39.303Z,15.97
2022-08-30T05:30:14.315Z,15.80
2022-08-30T05:31:46.594Z,15.43
2022-08-30T05:33:19.015Z,15.13
2022-08-30T05:34:51.452Z,14.83
2022-08-30T05:36:29.220Z,14.70
2022-08-30T05:38:01.598Z,13.93
2022-08-30T05:39:51.003Z,14.60
2022-08-30T05:41:26.575Z,13.27
2022-08-30T05:43:00.256Z,13.30
2022-08-30T05:44:32.636Z,12.97
2022-08-30T05:46:12.410Z,13.80
2022-08-30T05:47:44.837Z,13.20
2022-08-30T05:49:17.228Z,13.67
2022-08-30T05:50:49.536Z,12.67
2022-08-30T05:52:22.133Z,13.37
2022-08-30T05:53:55.673Z,12.47
2022-08-30T05:55:27.925Z,12.17
2022-08-30T05:57:00.108Z,13.03
2022-08-30T05:58:33.612Z,13.10
2022-08-30T06:00:11.951Z,12.13
2022-08-30T06:01:47.111Z,12.70
2022-08-30T06:03:19.852Z,12.77
2022-08-30T06:04:52.254Z,12.40
2022-08-30T06:06:24.948Z,12.43
2022-08-30T06:07:57.160Z,13.23
2022-08-30T06:09:29.763Z,12.57
2022-08-30T06:11:02.175Z,11.50
2022-08-30T06:12:34.446Z,11.40
2022-08-30T06:14:07.339Z,10.03
2022-08-30T06:15:39.620Z,11.53
2022-08-30T06:17:12.203Z,11.63
2022-08-30T06:18:45.782Z,11.20
2022-08-30T06:20:20.994Z,12.07
2022-08-30T06:21:53.204Z,10.73
2022-08-30T06:23:25.915Z,11.20
2022-08-30T06:24:58.454Z,10.77
2022-08-30T06:28:11.000Z,11.00
2022-08-30T06:29:43.432Z,10.83
2022-08-30T06:31:19.933Z,10.63
2022-08-30T06:32:52.135Z,11.70
2022-08-30T06:34:24.407Z,11.30
2022-08-30T06:36:06.455Z,11.43
2022-08-30T06:37:38.820Z,12.27
2022-08-30T06:39:11.226Z,12.37
2022-08-30T06:40:43.714Z,11.70
2022-08-30T06:42:16.141Z,11.60
2022-08-30T06:43:49.450Z,11.83
2022-08-30T06:45:22.039Z,12.13
2022-08-30T06:46:54.356Z,11.80
2022-08-30T06:48:26.781Z,12.70
2022-08-30T06:49:59.361Z,12.03
2022-08-30T06:51:37.531Z,11.50
2022-08-30T06:53:11.967Z,11.67
2022-08-30T06:54:44.354Z,11.90
2022-08-30T06:56:17.731Z,12.23
2022-08-30T06:57:49.876Z,12.00
2022-08-30T06:59:22.073Z,12.27
2022-08-30T07:00:54.563Z,12.93
2022-08-30T07:02:26.902Z,11.90
2022-08-30T07:04:01.099Z,11.87
2022-08-30T07:05:33.364Z,12.20
2022-08-30T07:07:06.206Z,12.33
2022-08-30T07:08:39.216Z,11.70
2022-08-30T07:10:11.674Z,12.43
2022-08-30T07:11:44.736Z,11.77
2022-08-30T07:13:19.515Z,11.40
2022-08-30T07:14:51.824Z,11.50
2022-08-30T07:16:24.297Z,11.43
2022-08-30T07:18:15.164Z,10.60
2022-08-30T07:19:49.772Z,12.13
2022-08-30T07:21:44.408Z,11.97
2022-08-30T07:23:17.484Z,10.87
2022-08-30T07:24:50.308Z,10.00
2022-08-30T07:26:30.274Z,10.83
2022-08-30T07:28:05.644Z,10.63
2022-08-30T07:29:38.054Z,11.50
2022-08-30T07:31:11.929Z,10.00
2022-08-30T07:32:44.912Z,9.40
2022-08-30T07:34:19.299Z,8.80
2022-08-30T07:35:52.708Z,9.75
2022-08-30T07:37:25.813Z,14.45
2022-08-30T07:38:58.667Z,11.00
2022-08-30T07:40:30.954Z,11.50
2022-08-30T07:42:03.851Z,9.40
2022-08-30T07:43:37.622Z,7.95
2022-08-30T07:45:11.823Z,8.23
2022-08-30T07:46:44.124Z,8.10
2022-08-30T07:48:16.381Z,7.32
2022-08-30T07:49:48.902Z,8.07
2022-08-30T07:51:25.375Z,8.00
2022-08-30T07:52:57.675Z,5.43
2022-08-30T07:54:29.973Z,7.28
2022-08-30T07:56:04.867Z,7.32
2022-08-30T07:57:37.546Z,7.30
2022-08-30T07:59:09.747Z,6.50
2022-08-30T08:00:42.753Z,4.75
2022-08-30T08:02:15.338Z,4.80
2022-08-30T08:03:48.170Z,5.20
2022-08-30T08:05:24.612Z,4.40
2022-08-30T08:06:57.326Z,4.80
2022-08-30T08:08:30.674Z,4.70
2022-08-30T08:10:04.383Z,4.00
2022-08-30T08:11:37.112Z,4.88
2022-08-30T08:13:09.555Z,4.70
2022-08-30T08:14:42.107Z,4.47
2022-08-30T08:16:14.325Z,4.10
2022-08-30T08:17:49.591Z,4.10
2022-08-30T08:19:21.853Z,4.47
2022-08-30T08:20:54.271Z,4.15
2022-08-30T08:22:29.026Z,4.00
2022-08-30T08:24:01.300Z,5.35
2022-08-30T08:25:37.647Z,5.30
2022-08-30T08:27:10.087Z,5.57
2022-08-30T08:28:45.023Z,4.97
2022-08-30T08:30:19.940Z,4.72
2022-08-30T08:31:52.273Z,4.53
2022-08-30T08:33:25.035Z,4.50
2022-08-30T08:34:57.266Z,4.40
2022-08-30T08:36:31.244Z,4.75
2022-08-30T08:38:04.876Z,5.00
2022-08-30T08:39:37.538Z,4.22
2022-08-30T08:41:32.153Z,4.68
2022-08-30T08:43:20.193Z,4.40
2022-08-30T08:45:11.794Z,4.68
2022-08-30T08:47:00.640Z,3.78
2022-08-30T08:48:59.852Z,3.70
2022-08-30T08:50:33.495Z,3.67
2022-08-30T08:52:31.715Z,3.90
2022-08-30T08:54:17.787Z,3.85
2022-08-30T08:55:53.258Z,3.80
2022-08-30T08:57:29.527Z,5.15
2022-08-30T08:59:02.025Z,4.30
2022-08-30T09:00:34.728Z,4.07
2022-08-30T09:02:29.364Z,3.80
2022-08-30T09:04:10.274Z,3.90
2022-08-30T09:05:44.901Z,3.97
2022-08-30T09:07:42.498Z,3.90
2022-08-30T09:09:18.353Z,4.30
2022-08-30T09:11:05.745Z,4.15
2022-08-30T09:12:38.289Z,3.90
2022-08-30T09:14:30.345Z,3.97
2022-08-30T09:16:05.234Z,3.85
2022-08-30T09:18:04.644Z,3.55
2022-08-30T09:19:54.218Z,3.67
2022-08-30T09:21:28.881Z,3.50
2022-08-30T09:23:24.082Z,3.85
2022-08-30T09:25:13.488Z,3.25
2022-08-30T09:26:45.653Z,3.78
2022-08-30T09:28:28.847Z,3.78
2022-08-30T09:30:14.273Z,3.42
2022-08-30T09:32:10.053Z,4.25
2022-08-30T09:34:08.758Z,3.67
2022-08-30T09:35:49.107Z,3.40
2022-08-30T09:37:41.215Z,3.00
2022-08-30T09:39:19.097Z,3.15
2022-08-30T09:40:56.878Z,3.08
2022-08-30T09:42:31.133Z,2.90
2022-08-30T09:44:28.204Z,3.10
2022-08-30T09:46:00.886Z,3.70
2022-08-30T09:47:33.652Z,3.00
2022-08-30T09:49:43.790Z,3.10
2022-08-30T09:51:49.673Z,3.22
2022-08-30T09:53:33.351Z,3.10
2022-08-30T09:55:32.423Z,3.38
2022-08-30T09:57:34.142Z,3.20
2022-08-30T09:59:29.809Z,2.85
2022-08-30T10:01:24.392Z,2.80
2022-08-30T10:03:36.110Z,3.50
2022-08-30T10:05:56.567Z,3.38
2022-08-30T10:07:34.549Z,3.40
2022-08-30T10:09:23.059Z,3.30
2022-08-30T10:11:54.799Z,2.90
2022-08-30T10:14:05.728Z,3.25
2022-08-30T10:16:02.803Z,3.28
2022-08-30T10:17:41.839Z,3.83
2022-08-30T10:19:47.536Z,3.53
2022-08-30T10:21:43.930Z,3.70
2022-08-30T10:23:31.564Z,3.53
2022-08-30T10:25:26.494Z,3.72
2022-08-30T10:27:18.196Z,3.22
2022-08-30T10:29:02.594Z,3.70
2022-08-30T10:30:40.448Z,3.78
2022-08-30T10:32:31.086Z,3.55
2022-08-30T10:34:14.413Z,3.65
2022-08-30T10:35:55.352Z,3.90
2022-08-30T10:37:32.234Z,3.75
2022-08-30T10:39:09.497Z,3.75
2022-08-30T10:41:44.631Z,3.83
2022-08-30T10:43:55.006Z,3.60
2022-08-30T10:45:33.316Z,3.90
2022-08-30T10:47:42.514Z,3.58
2022-08-30T10:49:23.622Z,3.83
2022-08-30T10:51:03.863Z,3.53
2022-08-30T10:52:53.170Z,3.55
2022-08-30T10:54:58.997Z,3.47
2022-08-30T10:56:32.011Z,3.30
2022-08-30T10:58:06.761Z,3.83
2022-08-30T10:59:54.647Z,3.60
2022-08-30T11:02:10.015Z,3.40
2022-08-30T11:03:52.775Z,4.00
2022-08-30T11:05:42.909Z,3.80
2022-08-30T11:07:46.219Z,3.85
2022-08-30T11:09:37.988Z,3.30
2022-08-30T11:11:38.364Z,3.60
2022-08-30T11:13:21.289Z,2.83
2022-08-30T11:14:54.278Z,3.35
2022-08-30T11:16:43.788Z,3.47
2022-08-30T11:18:17.644Z,3.30
2022-08-30T11:19:56.844Z,3.42
2022-08-30T11:21:42.099Z,3.25
2022-08-30T11:23:33.935Z,3.05
2022-08-30T11:25:16.067Z,3.40
2022-08-30T11:27:00.715Z,3.50
2022-08-30T11:28:36.453Z,3.08
2022-08-30T11:30:38.164Z,3.33
2022-08-30T11:32:13.505Z,3.35
2022-08-30T11:33:53.642Z,3.20
2022-08-30T11:37:45.281Z,3.17
2022-08-30T11:39:47.231Z,3.78
2022-08-30T11:43:36.855Z,3.70
2022-08-30T11:45:26.763Z,3.55
2022-08-30T11:47:42.233Z,4.10
2022-08-30T11:49:15.050Z,4.00
2022-08-30T11:50:57.694Z,3.78
2022-08-30T11:52:50.603Z,3.42
2022-08-30T11:55:01.949Z,3.30
2022-08-30T11:57:06.687Z,3.25
2022-08-30T11:59:11.660Z,3.28
2022-08-30T12:00:52.578Z,3.20
2022-08-30T12:03:02.252Z,3.20
2022-08-30T12:04:46.217Z,3.17
2022-08-30T12:06:41.651Z,2.92
2022-08-30T12:08:33.518Z,3.25
2022-08-30T12:10:20.854Z,3.22
2022-08-30T12:12:06.555Z,3.25
2022-08-30T12:13:44.827Z,3.17
2022-08-30T12:15:54.718Z,3.58
2022-08-30T12:18:15.461Z,3.42
2022-08-30T12:19:50.604Z,3.75
2022-08-30T12:21:29.187Z,3.65
2022-08-30T12:23:24.471Z,3.40
2022-08-30T12:24:57.127Z,3.00
2022-08-30T12:26:35.971Z,3.33
2022-08-30T12:28:24.541Z,3.25
2022-08-30T12:30:06.532Z,4.00
2022-08-30T12:32:05.482Z,3.10
2022-08-30T12:33:46.479Z,2.92
2022-08-30T12:35:25.701Z,3.00
2022-08-30T12:37:10.815Z,3.25
2022-08-30T12:38:45.036Z,3.28
2022-08-30T12:40:23.000Z,2.92
2022-08-30T12:42:10.269Z,2.80
2022-08-30T12:43:52.088Z,3.40
2022-08-30T12:45:50.929Z,3.10
2022-08-30T12:48:03.529Z,3.40
2022-08-30T12:49:38.041Z,3.25
2022-08-30T12:51:42.529Z,3.10
2022-08-30T12:53:32.446Z,3.25
2022-08-30T12:55:17.244Z,3.45
2022-08-30T12:57:25.345Z,3.03
2022-08-30T12:58:59.875Z,2.88
2022-08-30T13:00:47.707Z,3.35
2022-08-30T13:02:28.373Z,2.80
2022-08-30T13:04:20.933Z,3.00
2022-08-30T13:05:54.551Z,2.75
2022-08-30T13:07:35.504Z,2.83
2022-08-30T13:09:08.973Z,3.30
2022-08-30T13:11:29.358Z,3.00
2022-08-30T13:13:06.760Z,2.95
2022-08-30T13:14:45.818Z,2.85
2022-08-30T13:16:18.248Z,2.63
2022-08-30T13:18:30.142Z,2.65
2022-08-30T13:20:22.054Z,2.78
2022-08-30T13:21:59.388Z,3.55
2022-08-30T13:23:31.605Z,3.28
2022-08-30T13:25:07.444Z,3.05
2022-08-30T13:26:41.197Z,5.32
2022-08-30T13:28:13.528Z,3.63
2022-08-30T13:29:45.851Z,3.50
2022-08-30T13:31:19.289Z,3.25
2022-08-30T13:32:52.711Z,3.28
2022-08-30T13:34:25.274Z,2.90
2022-08-30T13:35:57.713Z,2.88
2022-08-30T13:37:47.594Z,2.50
2022-08-30T13:39:24.358Z,2.40
2022-08-30T13:40:56.638Z,2.75
2022-08-30T13:42:32.223Z,2.42
2022-08-30T13:44:13.482Z,2.47
2022-08-30T13:45:46.977Z,2.72
2022-08-30T13:47:37.151Z,2.30
2022-08-30T13:51:12.238Z,2.05
2022-08-30T13:52:44.621Z,2.20
2022-08-30T13:54:18.780Z,2.05
2022-08-30T13:55:52.255Z,2.20
2022-08-30T13:59:23.174Z,2.10
2022-08-30T14:00:56.705Z,2.10
2022-08-30T14:02:29.589Z,2.20
2022-08-30T14:04:17.778Z,2.30
2022-08-30T14:06:15.792Z,1.67
2022-08-30T14:07:45.054Z,2.00
2022-08-30T14:09:17.547Z,1.92
2022-08-30T14:10:51.742Z,1.60
2022-08-30T14:12:53.044Z,2.13
2022-08-30T14:14:28.525Z,2.13
2022-08-30T14:16:27.389Z,1.73
2022-08-30T14:18:00.009Z,1.88
2022-08-30T14:19:32.305Z,1.92
2022-08-30T14:21:04.604Z,1.73
2022-08-30T14:22:38.379Z,1.60
2022-08-30T14:24:12.112Z,1.67
2022-08-30T14:25:45.760Z,1.90
2022-08-30T14:27:17.947Z,1.92
2022-08-30T14:28:51.628Z,1.88
2022-08-30T14:30:25.535Z,1.80
2022-08-30T14:32:00.067Z,1.80
2022-08-30T14:33:32.903Z,2.22
2022-08-30T14:35:06.907Z,1.90
2022-08-30T14:36:42.918Z,1.90
2022-08-30T14:38:15.410Z,1.77
2022-08-30T14:39:47.772Z,1.80
2022-08-30T14:41:20.276Z,1.90
2022-08-30T14:42:52.895Z,1.88
2022-08-30T14:44:26.528Z,2.05
2022-08-30T14:46:01.564Z,2.00
2022-08-30T14:47:34.314Z,2.00
2022-08-30T14:49:06.632Z,2.03
2022-08-30T14:50:40.714Z,1.98
2022-08-30T14:52:13.146Z,1.83
2022-08-30T14:53:47.729Z,2.00
2022-08-30T14:55:20.047Z,2.17
2022-08-30T14:58:39.471Z,2.10
2022-08-30T15:00:13.724Z,1.83
2022-08-30T15:01:47.282Z,2.40
2022-08-30T15:03:20.036Z,2.00
2022-08-30T15:04:52.499Z,2.63
2022-08-30T15:06:27.543Z,2.15
2022-08-30T15:08:00.200Z,2.03
2022-08-30T15:09:32.979Z,1.90
2022-08-30T15:11:13.547Z,2.20
2022-08-30T15:12:51.244Z,2.10
2022-08-30T15:14:26.568Z,2.08
2022-08-30T15:16:00.568Z,2.05
2022-08-30T15:17:32.935Z,2.10
2022-08-30T15:19:10.607Z,1.98
2022-08-30T15:20:50.375Z,2.28
2022-08-30T15:22:22.731Z,1.92
2022-08-30T15:23:54.989Z,2.10
2022-08-30T15:25:28.027Z,2.50
2022-08-30T15:27:02.167Z,2.30
2022-08-30T15:28:34.706Z,1.83
2022-08-30T15:30:08.563Z,2.03
2022-08-30T15:31:45.777Z,1.98
2022-08-30T15:33:24.017Z,1.75
2022-08-30T15:34:56.392Z,1.77
2022-08-30T15:36:30.065Z,2.10
2022-08-30T15:38:02.859Z,1.85
2022-08-30T15:39:35.582Z,2.10
2022-08-30T15:41:12.229Z,1.80
2022-08-30T15:42:45.160Z,1.65
2022-08-30T15:44:18.941Z,1.90
2022-08-30T15:45:54.395Z,1.80
2022-08-30T15:47:26.996Z,1.67
2022-08-30T15:49:22.128Z,1.73
2022-08-30T15:50:58.724Z,1.77
2022-08-30T15:52:31.589Z,1.60
2022-08-30T15:54:05.997Z,1.55
2022-08-30T15:55:38.413Z,1.90
2022-08-30T15:57:10.956Z,1.58
2022-08-30T15:58:44.915Z,1.80
2022-08-30T16:00:17.861Z,2.00
2022-08-30T16:01:50.322Z,1.83
2022-08-30T16:03:23.278Z,2.00
2022-08-30T16:04:55.512Z,1.90
2022-08-30T16:06:32.815Z,2.20
2022-08-30T16:08:05.676Z,1.80
2022-08-30T16:09:38.814Z,1.80
2022-08-30T16:11:16.950Z,1.70
2022-08-30T16:12:49.782Z,1.98
2022-08-30T16:14:22.050Z,1.80
2022-08-30T16:15:54.528Z,1.88
2022-08-30T16:17:26.830Z,1.40
2022-08-30T16:18:59.315Z,2.03
2022-08-30T16:20:32.067Z,1.80
2022-08-30T16:22:04.818Z,2.00
2022-08-30T16:23:40.499Z,1.83
2022-08-30T16:25:17.411Z,1.90
2022-08-30T16:26:50.938Z,1.80
2022-08-30T16:28:23.365Z,1.83
2022-08-30T16:29:55.577Z,1.60
2022-08-30T16:31:31.448Z,1.98
2022-08-30T16:33:04.019Z,1.90
2022-08-30T16:34:38.462Z,2.30
2022-08-30T16:36:12.010Z,2.00
2022-08-30T16:37:44.704Z,2.00
2022-08-30T16:39:17.625Z,2.15
2022-08-30T16:40:52.198Z,2.00
2022-08-30T16:42:25.588Z,2.28
2022-08-30T16:43:57.858Z,2.10
2022-08-30T16:45:34.362Z,1.67
2022-08-30T16:47:10.216Z,2.05
2022-08-30T16:48:47.022Z,2.17
2022-08-30T16:50:21.512Z,1.95
2022-08-30T16:51:54.819Z,1.77
2022-08-30T16:53:27.998Z,1.80
2022-08-30T16:55:00.956Z,1.95
2022-08-30T16:56:35.772Z,1.95
2022-08-30T16:58:11.783Z,1.70
2022-08-30T16:59:49.544Z,2.28
2022-08-30T17:01:25.089Z,1.95
2022-08-30T17:02:57.441Z,1.80
2022-08-30T17:04:29.750Z,1.83
2022-08-30T17:06:02.340Z,1.50
2022-08-30T17:07:36.423Z,1.53
2022-08-30T17:09:09.401Z,1.40
2022-08-30T17:10:43.802Z,1.33
2022-08-30T17:12:19.833Z,1.63
2022-08-30T17:13:52.593Z,1.83
2022-08-30T17:15:27.164Z,1.70
2022-08-30T17:17:01.404Z,1.80
2022-08-30T17:18:35.997Z,1.53
2022-08-30T17:20:10.829Z,1.70
2022-08-30T17:21:43.012Z,1.60
2022-08-30T17:23:15.995Z,1.90
2022-08-30T17:24:48.919Z,1.60
2022-08-30T17:26:21.310Z,1.57
2022-08-30T17:27:54.043Z,1.60
2022-08-30T17:29:26.480Z,1.57
2022-08-30T17:30:59.346Z,1.53
2022-08-30T17:32:31.743Z,1.50
2022-08-30T17:34:05.789Z,1.93
2022-08-30T17:35:38.583Z,2.10
2022-08-30T17:37:11.429Z,2.00
2022-08-30T17:38:45.042Z,1.90
2022-08-30T17:40:19.612Z,1.77
2022-08-30T17:41:52.781Z,1.87
2022-08-30T17:43:25.356Z,1.47
2022-08-30T17:44:59.447Z,1.97
2022-08-30T17:46:36.051Z,1.50
2022-08-30T17:48:08.642Z,1.50
2022-08-30T17:49:41.307Z,1.60
2022-08-30T17:51:14.606Z,1.40
2022-08-30T17:52:47.747Z,1.33
2022-08-30T17:54:21.046Z,1.60
2022-08-30T17:55:57.462Z,1.40
2022-08-30T17:57:30.883Z,1.40
2022-08-30T17:59:07.924Z,1.30
2022-08-30T18:00:41.513Z,1.30
2022-08-30T18:02:15.266Z,1.60
2022-08-30T18:03:57.661Z,1.40
2022-08-30T18:05:35.008Z,1.33
2022-08-30T18:07:14.745Z,1.30
2022-08-30T18:08:47.655Z,1.23
2022-08-30T18:10:19.898Z,1.30
2022-08-30T18:12:00.806Z,1.40
2022-08-30T18:13:34.169Z,1.40
2022-08-30T18:15:12.367Z,1.37
2022-08-30T18:16:50.023Z,1.30
2022-08-30T18:18:27.279Z,1.30
2022-08-30T18:20:00.089Z,1.30
2022-08-30T18:21:36.813Z,1.10
2022-08-30T18:23:10.476Z,1.30
2022-08-30T18:24:44.603Z,1.20
2022-08-30T18:26:17.474Z,1.40
2022-08-30T18:27:57.135Z,1.20
2022-08-30T18:29:31.683Z,1.53
2022-08-30T18:31:04.187Z,1.47
2022-08-30T18:32:38.115Z,1.30
2022-08-30T18:34:12.186Z,1.30
2022-08-30T18:35:48.209Z,1.27
2022-08-30T18:37:20.790Z,1.30
2022-08-30T18:38:57.407Z,1.37
2022-08-30T18:40:30.495Z,1.03
2022-08-30T18:42:06.361Z,1.50
2022-08-30T18:43:38.717Z,1.43
2022-08-30T18:45:14.749Z,1.40
2022-08-30T18:46:56.653Z,2.07
2022-08-30T18:48:29.621Z,1.60
2022-08-30T18:50:01.901Z,1.50
2022-08-30T18:51:34.356Z,1.60
2022-08-30T18:53:07.764Z,1.40
2022-08-30T18:54:52.332Z,1.43
2022-08-30T18:56:27.274Z,1.60
2022-08-30T18:58:02.536Z,1.47
2022-08-30T18:59:36.743Z,1.67
2022-08-30T19:01:10.204Z,1.57
2022-08-30T19:02:47.182Z,1.50
2022-08-30T19:04:22.489Z,1.50
2022-08-30T19:06:06.605Z,1.80
2022-08-30T19:07:40.559Z,1.87
2022-08-30T19:09:12.925Z,1.60
2022-08-30T19:10:45.179Z,2.90
2022-08-30T19:12:17.831Z,3.07
2022-08-30T19:13:51.508Z,2.87
2022-08-30T19:15:23.782Z,3.70
2022-08-30T19:16:56.580Z,3.33
2022-08-30T19:18:29.106Z,3.83
2022-08-30T19:20:01.944Z,2.93
2022-08-30T19:21:34.202Z,3.13
2022-08-30T19:23:09.058Z,2.93
2022-08-30T19:24:43.495Z,2.27
2022-08-30T19:26:16.227Z,3.37
2022-08-30T19:27:49.106Z,3.60
2022-08-30T19:29:23.404Z,3.53
2022-08-30T19:30:56.736Z,3.07
2022-08-30T19:32:29.012Z,3.00
2022-08-30T19:34:01.394Z,2.20
2022-08-30T19:35:33.938Z,1.80
2022-08-30T19:37:06.374Z,2.10
2022-08-30T19:38:39.010Z,2.17
2022-08-30T19:40:15.330Z,1.90
2022-08-30T19:41:47.753Z,2.00
2022-08-30T19:43:20.257Z,2.43
2022-08-30T19:44:53.065Z,3.13
2022-08-30T19:46:25.261Z,3.83
2022-08-30T19:47:59.085Z,4.60
2022-08-30T19:49:33.342Z,4.80
2022-08-30T19:51:11.229Z,5.50
2022-08-30T19:52:52.737Z,5.80
2022-08-30T19:54:26.747Z,6.93
2022-08-30T19:56:00.225Z,6.70
2022-08-30T19:57:32.818Z,4.63
2022-08-30T19:59:05.251Z,3.20
2022-08-30T20:00:39.199Z,2.90
2022-08-30T20:02:17.609Z,2.80
2022-08-30T20:03:51.926Z,3.23
2022-08-30T20:05:24.246Z,3.20
2022-08-30T20:06:56.579Z,3.73
2022-08-30T20:08:29.656Z,3.40
2022-08-30T20:10:09.062Z,3.20
2022-08-30T20:11:42.869Z,2.93
2022-08-30T20:13:16.316Z,2.80
2022-08-30T20:14:49.164Z,2.83
2022-08-30T20:16:21.750Z,2.40
2022-08-30T20:18:14.330Z,2.70
2022-08-30T20:19:47.752Z,3.00
2022-08-30T20:21:20.837Z,2.67
2022-08-30T20:22:54.281Z,2.60
2022-08-30T20:24:28.196Z,2.33
2022-08-30T20:26:03.528Z,2.70
2022-08-30T20:27:39.796Z,2.33
2022-08-30T20:29:12.943Z,3.17
2022-08-30T20:30:45.213Z,4.57
2022-08-30T20:32:17.965Z,4.47
2022-08-30T20:33:51.699Z,5.53
2022-08-30T20:35:24.283Z,9.53
2022-08-30T20:36:57.890Z,8.27
2022-08-30T20:38:30.394Z,5.87
2022-08-30T20:40:04.667Z,4.73
2022-08-30T20:41:38.121Z,6.03
2022-08-30T20:43:13.550Z,12.73
2022-08-30T20:44:45.814Z,11.40
2022-08-30T20:46:20.761Z,6.37
2022-08-30T20:47:53.819Z,5.50
2022-08-30T20:49:26.020Z,5.50
2022-08-30T20:50:58.402Z,7.60
2022-08-30T20:52:30.936Z,5.83
2022-08-30T20:54:03.384Z,3.43
2022-08-30T20:55:41.405Z,5.43
2022-08-30T20:57:13.606Z,5.43
2022-08-30T20:58:46.746Z,4.33
2022-08-30T21:00:19.373Z,3.80
2022-08-30T21:01:52.082Z,3.77
2022-08-30T21:03:27.993Z,3.60
2022-08-30T21:05:00.948Z,2.50
2022-08-30T21:06:37.478Z,3.17
2022-08-30T21:08:10.284Z,3.50
2022-08-30T21:09:43.088Z,3.60
2022-08-30T21:11:16.530Z,3.10
2022-08-30T21:12:49.717Z,3.20
2022-08-30T21:14:21.984Z,2.93
2022-08-30T21:16:00.352Z,3.20
2022-08-30T21:17:33.446Z,2.93
2022-08-30T21:19:06.192Z,2.93
2022-08-30T21:20:39.187Z,2.30
2022-08-30T21:22:12.439Z,2.13
2022-08-30T21:23:44.894Z,2.07
2022-08-30T21:25:17.504Z,2.50
2022-08-30T21:26:51.709Z,2.00
2022-08-30T21:28:24.110Z,2.60
2022-08-30T21:29:58.438Z,2.53
2022-08-30T21:31:30.847Z,2.40
2022-08-30T21:33:07.719Z,2.47
2022-08-30T21:34:58.738Z,2.90